sensor_id;sensor_type;location;lat;lon;timestamp;pressure;altitude;pressure_sealevel;temperature;humidity
32733;BME280;11867;51.198;11.966;2022-12-07T00:03:41;100347.97;;;2.59;98.96
32733;BME280;11867;51.198;11.966;2022-12-07T00:08:44;100342.69;;;2.34;100.00
32733;BME280;11867;51.198;11.966;2022-12-07T00:13:51;100340.22;;;2.32;100.00
32733;BME280;11867;51.198;11.966;2022-12-07T00:18:54;100336.88;;;2.67;98.33
32733;BME280;11867;51.198;11.966;2022-12-07T00:23:57;100329.28;;;2.76;98.21
32733;BME280;11867;51.198;11.966;2022-12-07T00:29:03;100340.09;;;2.57;96.99
32733;BME280;11867;51.198;11.966;2022-12-07T00:34:12;100332.50;;;2.96;95.17
32733;BME280;11867;51.198;11.966;2022-12-07T00:39:16;100332.31;;;2.19;96.93
32733;BME280;11867;51.198;11.966;2022-12-07T00:44:20;100325.19;;;2.43;96.44
32733;BME280;11867;51.198;11.966;2022-12-07T00:49:25;100314.41;;;2.73;95.17
32733;BME280;11867;51.198;11.966;2022-12-07T00:54:28;100305.47;;;2.61;94.06
32733;BME280;11867;51.198;11.966;2022-12-07T00:59:35;100312.19;;;2.40;93.75
32733;BME280;11867;51.198;11.966;2022-12-07T01:04:38;100316.22;;;2.31;94.32
32733;BME280;11867;51.198;11.966;2022-12-07T01:09:41;100314.63;;;1.93;95.99
32733;BME280;11867;51.198;11.966;2022-12-07T01:14:45;100305.47;;;2.31;94.28
32733;BME280;11867;51.198;11.966;2022-12-07T01:19:47;100300.03;;;2.49;92.93
32733;BME280;11867;51.198;11.966;2022-12-07T01:24:50;100305.91;;;2.46;92.50
32733;BME280;11867;51.198;11.966;2022-12-07T01:29:54;100302.19;;;2.29;93.63
32733;BME280;11867;51.198;11.966;2022-12-07T01:34:56;100302.09;;;2.35;93.28
32733;BME280;11867;51.198;11.966;2022-12-07T01:39:59;100287.28;;;1.96;94.54
32733;BME280;11867;51.198;11.966;2022-12-07T01:45:36;100284.16;;;0.93;100.00
32733;BME280;11867;51.198;11.966;2022-12-07T01:50:40;100284.44;;;0.85;100.00
32733;BME280;11867;51.198;11.966;2022-12-07T01:55:46;100290.16;;;0.89;100.00
32733;BME280;11867;51.198;11.966;2022-12-07T02:00:52;100278.00;;;1.11;100.00
32733;BME280;11867;51.198;11.966;2022-12-07T02:05:55;100274.88;;;1.39;98.71
32733;BME280;11867;51.198;11.966;2022-12-07T02:11:01;100258.59;;;1.09;100.00
32733;BME280;11867;51.198;11.966;2022-12-07T02:16:27;100259.88;;;1.07;100.00
32733;BME280;11867;51.198;11.966;2022-12-07T02:21:40;100246.50;;;1.44;100.00
32733;BME280;11867;51.198;11.966;2022-12-07T02:27:18;100235.31;;;1.28;100.00
32733;BME280;11867;51.198;11.966;2022-12-07T02:32:36;100233.94;;;2.11;97.88
32733;BME280;11867;51.198;11.966;2022-12-07T02:37:48;100237.00;;;2.57;94.39
32733;BME280;11867;51.198;11.966;2022-12-07T02:43:01;100238.63;;;2.46;93.85
32733;BME280;11867;51.198;11.966;2022-12-07T02:48:10;100232.94;;;2.24;94.64
32733;BME280;11867;51.198;11.966;2022-12-07T02:53:34;100227.28;;;2.44;94.07
32733;BME280;11867;51.198;11.966;2022-12-07T02:58:48;100206.69;;;2.61;93.93
32733;BME280;11867;51.198;11.966;2022-12-07T03:04:00;100193.97;;;2.27;94.67
32733;BME280;11867;51.198;11.966;2022-12-07T03:09:12;100178.69;;;2.39;93.84
32733;BME280;11867;51.198;11.966;2022-12-07T03:14:19;100186.66;;;2.46;93.95
32733;BME280;11867;51.198;11.966;2022-12-07T03:19:28;100182.53;;;2.31;94.65
32733;BME280;11867;51.198;11.966;2022-12-07T03:24:35;100201.56;;;2.18;95.49
32733;BME280;11867;51.198;11.966;2022-12-07T03:29:43;100182.31;;;2.33;95.12
32733;BME280;11867;51.198;11.966;2022-12-07T03:34:52;100188.47;;;2.87;92.90
32733;BME280;11867;51.198;11.966;2022-12-07T03:40:01;100187.78;;;2.80;92.73
32733;BME280;11867;51.198;11.966;2022-12-07T03:45:07;100170.06;;;3.08;92.09
32733;BME280;11867;51.198;11.966;2022-12-07T03:50:15;100174.06;;;3.05;93.04
32733;BME280;11867;51.198;11.966;2022-12-07T03:55:25;100168.09;;;2.68;93.82
32733;BME280;11867;51.198;11.966;2022-12-07T04:00:29;100182.84;;;3.00;92.43
32733;BME280;11867;51.198;11.966;2022-12-07T04:05:33;100178.06;;;3.02;92.79
32733;BME280;11867;51.198;11.966;2022-12-07T04:10:36;100177.94;;;2.74;94.27
32733;BME280;11867;51.198;11.966;2022-12-07T04:15:39;100161.28;;;2.77;95.67
32733;BME280;11867;51.198;11.966;2022-12-07T04:20:43;100166.22;;;2.56;96.73
32733;BME280;11867;51.198;11.966;2022-12-07T04:25:47;100159.66;;;2.52;97.03
32733;BME280;11867;51.198;11.966;2022-12-07T04:30:50;100154.97;;;2.83;96.94
32733;BME280;11867;51.198;11.966;2022-12-07T04:35:54;100154.53;;;2.86;97.56
32733;BME280;11867;51.198;11.966;2022-12-07T04:40:58;100150.88;;;2.69;99.01
32733;BME280;11867;51.198;11.966;2022-12-07T04:46:01;100150.41;;;2.72;99.27
32733;BME280;11867;51.198;11.966;2022-12-07T04:51:05;100132.97;;;2.86;98.87
32733;BME280;11867;51.198;11.966;2022-12-07T04:56:08;100132.16;;;2.50;100.00
32733;BME280;11867;51.198;11.966;2022-12-07T05:01:11;100135.78;;;2.68;100.00
32733;BME280;11867;51.198;11.966;2022-12-07T05:06:16;100129.34;;;2.80;100.00
32733;BME280;11867;51.198;11.966;2022-12-07T05:11:18;100141.50;;;2.83;100.00
32733;BME280;11867;51.198;11.966;2022-12-07T05:16:36;100139.88;;;2.70;100.00
32733;BME280;11867;51.198;11.966;2022-12-07T05:21:40;100133.22;;;2.96;100.00
32733;BME280;11867;51.198;11.966;2022-12-07T05:26:43;100142.94;;;2.74;100.00
32733;BME280;11867;51.198;11.966;2022-12-07T05:31:46;100135.31;;;2.94;100.00
32733;BME280;11867;51.198;11.966;2022-12-07T05:36:50;100137.06;;;2.53;100.00
32733;BME280;11867;51.198;11.966;2022-12-07T05:41:53;100136.13;;;2.59;100.00
32733;BME280;11867;51.198;11.966;2022-12-07T05:47:16;100132.16;;;2.74;100.00
32733;BME280;11867;51.198;11.966;2022-12-07T05:52:20;100123.34;;;2.43;100.00
32733;BME280;11867;51.198;11.966;2022-12-07T05:57:23;100125.81;;;2.33;100.00
32733;BME280;11867;51.198;11.966;2022-12-07T06:02:25;100129.72;;;2.60;100.00
32733;BME280;11867;51.198;11.966;2022-12-07T06:07:29;100132.38;;;2.72;100.00
32733;BME280;11867;51.198;11.966;2022-12-07T06:12:32;100125.38;;;2.71;100.00
32733;BME280;11867;51.198;11.966;2022-12-07T06:17:40;100125.72;;;2.75;100.00
32733;BME280;11867;51.198;11.966;2022-12-07T06:22:44;100125.34;;;2.83;100.00
32733;BME280;11867;51.198;11.966;2022-12-07T06:27:47;100127.81;;;2.49;100.00
32733;BME280;11867;51.198;11.966;2022-12-07T06:32:49;100127.38;;;2.76;100.00
32733;BME280;11867;51.198;11.966;2022-12-07T06:37:53;100130.06;;;2.52;100.00
32733;BME280;11867;51.198;11.966;2022-12-07T06:42:56;100120.56;;;2.61;100.00
32733;BME280;11867;51.198;11.966;2022-12-07T06:47:58;100128.84;;;2.36;100.00
32733;BME280;11867;51.198;11.966;2022-12-07T06:53:03;100127.38;;;2.52;100.00
32733;BME280;11867;51.198;11.966;2022-12-07T06:58:05;100131.91;;;2.52;100.00
32733;BME280;11867;51.198;11.966;2022-12-07T07:03:08;100132.63;;;2.59;100.00
32733;BME280;11867;51.198;11.966;2022-12-07T07:08:12;100131.47;;;2.55;100.00
32733;BME280;11867;51.198;11.966;2022-12-07T07:13:24;100127.69;;;2.56;100.00
32733;BME280;11867;51.198;11.966;2022-12-07T07:18:27;100129.22;;;2.40;100.00
32733;BME280;11867;51.198;11.966;2022-12-07T07:23:31;100140.69;;;2.59;100.00
32733;BME280;11867;51.198;11.966;2022-12-07T07:28:33;100141.84;;;2.51;100.00
32733;BME280;11867;51.198;11.966;2022-12-07T07:33:36;100148.09;;;2.75;100.00
32733;BME280;11867;51.198;11.966;2022-12-07T07:38:40;100140.47;;;2.84;100.00
32733;BME280;11867;51.198;11.966;2022-12-07T07:43:43;100141.16;;;3.15;100.00
32733;BME280;11867;51.198;11.966;2022-12-07T07:48:46;100150.53;;;3.00;100.00
32733;BME280;11867;51.198;11.966;2022-12-07T07:53:50;100145.03;;;3.07;100.00
32733;BME280;11867;51.198;11.966;2022-12-07T07:58:52;100145.59;;;3.61;100.00
32733;BME280;11867;51.198;11.966;2022-12-07T08:03:55;100150.63;;;3.70;100.00
32733;BME280;11867;51.198;11.966;2022-12-07T08:08:59;100148.44;;;3.02;100.00
32733;BME280;11867;51.198;11.966;2022-12-07T08:14:02;100160.47;;;3.12;100.00
32733;BME280;11867;51.198;11.966;2022-12-07T08:19:04;100152.94;;;3.37;100.00
32733;BME280;11867;51.198;11.966;2022-12-07T08:24:09;100151.50;;;3.47;100.00
32733;BME280;11867;51.198;11.966;2022-12-07T08:29:11;100144.19;;;3.71;100.00
32733;BME280;11867;51.198;11.966;2022-12-07T08:34:14;100148.06;;;3.63;100.00
32733;BME280;11867;51.198;11.966;2022-12-07T08:39:18;100152.31;;;3.47;100.00
32733;BME280;11867;51.198;11.966;2022-12-07T08:44:32;100151.06;;;3.50;100.00
32733;BME280;11867;51.198;11.966;2022-12-07T08:49:38;100149.38;;;3.60;100.00
32733;BME280;11867;51.198;11.966;2022-12-07T08:54:43;100153.88;;;3.72;100.00
32733;BME280;11867;51.198;11.966;2022-12-07T08:59:46;100154.66;;;3.84;100.00
32733;BME280;11867;51.198;11.966;2022-12-07T09:04:48;100155.41;;;3.79;100.00
32733;BME280;11867;51.198;11.966;2022-12-07T09:09:52;100152.28;;;3.71;100.00
32733;BME280;11867;51.198;11.966;2022-12-07T09:14:55;100155.00;;;3.88;100.00
32733;BME280;11867;51.198;11.966;2022-12-07T09:19:58;100162.34;;;4.04;100.00
32733;BME280;11867;51.198;11.966;2022-12-07T09:25:04;100164.72;;;4.17;100.00
32733;BME280;11867;51.198;11.966;2022-12-07T09:30:07;100155.25;;;4.15;99.55
32733;BME280;11867;51.198;11.966;2022-12-07T09:35:10;100149.59;;;4.16;100.00
32733;BME280;11867;51.198;11.966;2022-12-07T09:40:15;100148.56;;;4.34;99.17
32733;BME280;11867;51.198;11.966;2022-12-07T09:45:22;100140.72;;;4.50;98.53
32733;BME280;11867;51.198;11.966;2022-12-07T09:50:27;100143.66;;;4.31;99.03
32733;BME280;11867;51.198;11.966;2022-12-07T09:55:33;100134.97;;;4.29;98.65
32733;BME280;11867;51.198;11.966;2022-12-07T10:00:38;100131.56;;;4.68;97.45
32733;BME280;11867;51.198;11.966;2022-12-07T10:05:45;100145.75;;;4.97;94.71
32733;BME280;11867;51.198;11.966;2022-12-07T10:10:54;100118.38;;;5.10;93.73
32733;BME280;11867;51.198;11.966;2022-12-07T10:15:57;100121.53;;;5.24;92.62
32733;BME280;11867;51.198;11.966;2022-12-07T10:21:14;100124.00;;;5.25;92.13
32733;BME280;11867;51.198;11.966;2022-12-07T10:26:30;100124.84;;;5.31;91.03
32733;BME280;11867;51.198;11.966;2022-12-07T10:31:38;100115.50;;;5.39;92.44
32733;BME280;11867;51.198;11.966;2022-12-07T10:36:41;100114.31;;;5.30;91.30
32733;BME280;11867;51.198;11.966;2022-12-07T10:41:56;100105.88;;;5.26;92.13
32733;BME280;11867;51.198;11.966;2022-12-07T10:47:18;100119.53;;;5.36;92.01
32733;BME280;11867;51.198;11.966;2022-12-07T10:52:39;100106.13;;;5.46;90.20
32733;BME280;11867;51.198;11.966;2022-12-07T10:58:00;100114.38;;;5.57;91.65
32733;BME280;11867;51.198;11.966;2022-12-07T11:03:21;100105.84;;;5.70;90.93
32733;BME280;11867;51.198;11.966;2022-12-07T11:08:43;100108.38;;;5.55;91.57
32733;BME280;11867;51.198;11.966;2022-12-07T11:13:56;100103.13;;;6.57;86.94
32733;BME280;11867;51.198;11.966;2022-12-07T11:19:20;100109.88;;;6.17;87.33
32733;BME280;11867;51.198;11.966;2022-12-07T11:24:35;100098.69;;;5.81;87.75
32733;BME280;11867;51.198;11.966;2022-12-07T11:30:16;100099.53;;;5.86;88.18
32733;BME280;11867;51.198;11.966;2022-12-07T11:35:29;100103.78;;;5.77;86.92
32733;BME280;11867;51.198;11.966;2022-12-07T11:40:38;100097.16;;;5.68;86.90
32733;BME280;11867;51.198;11.966;2022-12-07T11:45:44;100088.22;;;5.90;86.14
32733;BME280;11867;51.198;11.966;2022-12-07T11:50:50;100092.28;;;5.92;83.83
32733;BME280;11867;51.198;11.966;2022-12-07T11:55:57;100093.06;;;5.88;82.17
32733;BME280;11867;51.198;11.966;2022-12-07T12:01:14;100077.38;;;5.90;83.01
32733;BME280;11867;51.198;11.966;2022-12-07T12:06:21;100066.38;;;6.71;81.29
32733;BME280;11867;51.198;11.966;2022-12-07T12:11:38;100066.59;;;8.32;75.17
32733;BME280;11867;51.198;11.966;2022-12-07T12:17:02;100068.63;;;7.47;77.89
32733;BME280;11867;51.198;11.966;2022-12-07T12:22:14;100072.97;;;6.85;80.28
32733;BME280;11867;51.198;11.966;2022-12-07T12:27:24;100060.50;;;6.37;80.64
32733;BME280;11867;51.198;11.966;2022-12-07T12:32:39;100070.91;;;6.55;81.52
32733;BME280;11867;51.198;11.966;2022-12-07T12:37:46;100058.03;;;6.78;79.85
32733;BME280;11867;51.198;11.966;2022-12-07T12:42:50;100064.66;;;7.02;79.15
32733;BME280;11867;51.198;11.966;2022-12-07T12:47:57;100079.69;;;6.35;81.85
32733;BME280;11867;51.198;11.966;2022-12-07T12:53:15;100069.69;;;6.36;81.72
32733;BME280;11867;51.198;11.966;2022-12-07T12:58:30;100061.00;;;6.34;82.23
32733;BME280;11867;51.198;11.966;2022-12-07T13:03:34;100051.34;;;6.48;81.75
32733;BME280;11867;51.198;11.966;2022-12-07T13:08:40;100048.19;;;6.24;81.18
32733;BME280;11867;51.198;11.966;2022-12-07T13:13:45;100047.69;;;6.27;81.25
32733;BME280;11867;51.198;11.966;2022-12-07T13:18:49;100041.38;;;6.16;81.87
32733;BME280;11867;51.198;11.966;2022-12-07T13:23:54;100036.22;;;6.15;82.50
32733;BME280;11867;51.198;11.966;2022-12-07T13:29:09;100036.63;;;5.74;84.10
32733;BME280;11867;51.198;11.966;2022-12-07T13:34:31;100035.44;;;5.87;83.92
32733;BME280;11867;51.198;11.966;2022-12-07T13:39:44;100026.75;;;5.85;84.73
32733;BME280;11867;51.198;11.966;2022-12-07T13:44:47;100026.94;;;5.78;83.62
32733;BME280;11867;51.198;11.966;2022-12-07T13:49:53;100046.13;;;5.50;84.49
32733;BME280;11867;51.198;11.966;2022-12-07T13:54:57;100036.81;;;5.62;84.42
32733;BME280;11867;51.198;11.966;2022-12-07T14:00:00;100050.13;;;5.42;84.84
32733;BME280;11867;51.198;11.966;2022-12-07T14:05:10;100034.00;;;5.79;83.73
32733;BME280;11867;51.198;11.966;2022-12-07T14:10:24;100036.50;;;5.59;84.02
32733;BME280;11867;51.198;11.966;2022-12-07T14:15:29;100040.38;;;5.68;83.85
32733;BME280;11867;51.198;11.966;2022-12-07T14:20:36;100042.00;;;5.69;84.50
32733;BME280;11867;51.198;11.966;2022-12-07T14:25:46;100050.50;;;5.56;84.11
32733;BME280;11867;51.198;11.966;2022-12-07T14:30:52;100037.06;;;5.34;84.96
32733;BME280;11867;51.198;11.966;2022-12-07T14:35:56;100045.84;;;5.24;85.39
32733;BME280;11867;51.198;11.966;2022-12-07T14:40:59;100043.47;;;5.28;85.26
32733;BME280;11867;51.198;11.966;2022-12-07T14:46:19;100045.72;;;5.14;85.17
32733;BME280;11867;51.198;11.966;2022-12-07T14:51:25;100038.44;;;5.14;82.75
32733;BME280;11867;51.198;11.966;2022-12-07T14:56:47;100039.63;;;5.01;82.61
32733;BME280;11867;51.198;11.966;2022-12-07T15:01:52;100037.16;;;5.00;81.99
32733;BME280;11867;51.198;11.966;2022-12-07T15:06:57;100034.22;;;5.01;82.05
32733;BME280;11867;51.198;11.966;2022-12-07T15:12:00;100039.84;;;5.17;82.17
32733;BME280;11867;51.198;11.966;2022-12-07T15:17:02;100037.88;;;4.90;83.60
32733;BME280;11867;51.198;11.966;2022-12-07T15:22:13;100037.63;;;5.36;82.61
32733;BME280;11867;51.198;11.966;2022-12-07T15:27:16;100025.78;;;4.98;83.03
32733;BME280;11867;51.198;11.966;2022-12-07T15:32:19;100045.28;;;5.00;82.86
32733;BME280;11867;51.198;11.966;2022-12-07T15:37:24;100039.75;;;4.68;84.54
32733;BME280;11867;51.198;11.966;2022-12-07T15:42:27;100043.00;;;4.70;83.75
32733;BME280;11867;51.198;11.966;2022-12-07T15:47:29;100043.50;;;4.67;84.51
32733;BME280;11867;51.198;11.966;2022-12-07T15:52:34;100043.72;;;4.43;86.86
32733;BME280;11867;51.198;11.966;2022-12-07T15:57:37;100039.44;;;4.47;87.14
32733;BME280;11867;51.198;11.966;2022-12-07T16:02:39;100049.38;;;5.02;85.19
32733;BME280;11867;51.198;11.966;2022-12-07T16:07:43;100041.16;;;4.75;87.04
32733;BME280;11867;51.198;11.966;2022-12-07T16:12:48;100052.31;;;4.79;86.66
32733;BME280;11867;51.198;11.966;2022-12-07T16:17:50;100051.53;;;4.61;88.06
32733;BME280;11867;51.198;11.966;2022-12-07T16:22:54;100049.88;;;4.60;88.75
32733;BME280;11867;51.198;11.966;2022-12-07T16:27:57;100050.06;;;4.93;87.27
32733;BME280;11867;51.198;11.966;2022-12-07T16:32:59;100051.56;;;5.05;86.89
32733;BME280;11867;51.198;11.966;2022-12-07T16:38:04;100061.50;;;5.22;86.84
32733;BME280;11867;51.198;11.966;2022-12-07T16:43:06;100056.09;;;5.00;86.87
32733;BME280;11867;51.198;11.966;2022-12-07T16:48:10;100058.59;;;5.51;85.86
32733;BME280;11867;51.198;11.966;2022-12-07T16:53:14;100054.53;;;5.26;86.54
32733;BME280;11867;51.198;11.966;2022-12-07T16:58:17;100057.25;;;4.48;90.74
32733;BME280;11867;51.198;11.966;2022-12-07T17:03:20;100055.28;;;4.60;89.67
32733;BME280;11867;51.198;11.966;2022-12-07T17:08:24;100055.66;;;4.47;91.37
32733;BME280;11867;51.198;11.966;2022-12-07T17:13:27;100046.63;;;4.58;89.88
32733;BME280;11867;51.198;11.966;2022-12-07T17:18:47;100051.44;;;4.56;91.30
32733;BME280;11867;51.198;11.966;2022-12-07T17:23:51;100046.47;;;4.87;88.38
32733;BME280;11867;51.198;11.966;2022-12-07T17:28:56;100039.94;;;4.44;90.23
32733;BME280;11867;51.198;11.966;2022-12-07T17:33:59;100039.69;;;4.84;88.94
32733;BME280;11867;51.198;11.966;2022-12-07T17:39:05;100042.59;;;4.78;89.01
32733;BME280;11867;51.198;11.966;2022-12-07T17:44:11;100045.72;;;4.70;89.13
32733;BME280;11867;51.198;11.966;2022-12-07T17:49:14;100039.94;;;4.83;88.82
32733;BME280;11867;51.198;11.966;2022-12-07T17:54:18;100042.06;;;4.59;89.57
32733;BME280;11867;51.198;11.966;2022-12-07T17:59:20;100028.38;;;4.65;89.56
32733;BME280;11867;51.198;11.966;2022-12-07T18:04:23;100042.88;;;4.59;89.78
32733;BME280;11867;51.198;11.966;2022-12-07T18:09:27;100035.25;;;4.56;90.01
32733;BME280;11867;51.198;11.966;2022-12-07T18:14:29;100039.78;;;4.51;90.82
32733;BME280;11867;51.198;11.966;2022-12-07T18:19:35;100031.69;;;4.34;91.20
32733;BME280;11867;51.198;11.966;2022-12-07T18:24:39;100033.75;;;4.27;90.91
32733;BME280;11867;51.198;11.966;2022-12-07T18:29:42;100020.72;;;4.07;92.66
32733;BME280;11867;51.198;11.966;2022-12-07T18:34:44;100030.94;;;4.04;91.72
32733;BME280;11867;51.198;11.966;2022-12-07T18:39:48;100035.69;;;4.14;91.13
32733;BME280;11867;51.198;11.966;2022-12-07T18:44:50;100027.84;;;4.13;91.47
32733;BME280;11867;51.198;11.966;2022-12-07T18:49:54;100021.63;;;4.12;91.63
32733;BME280;11867;51.198;11.966;2022-12-07T18:55:00;100022.13;;;4.09;92.02
32733;BME280;11867;51.198;11.966;2022-12-07T19:00:04;100016.16;;;4.24;90.60
32733;BME280;11867;51.198;11.966;2022-12-07T19:05:07;100017.59;;;4.32;90.19
32733;BME280;11867;51.198;11.966;2022-12-07T19:10:11;100014.75;;;4.21;91.09
32733;BME280;11867;51.198;11.966;2022-12-07T19:15:14;100020.13;;;4.55;88.65
32733;BME280;11867;51.198;11.966;2022-12-07T19:20:17;100018.84;;;3.73;92.10
32733;BME280;11867;51.198;11.966;2022-12-07T19:25:20;100018.38;;;4.10;90.49
32733;BME280;11867;51.198;11.966;2022-12-07T19:30:23;100019.16;;;4.28;90.17
32733;BME280;11867;51.198;11.966;2022-12-07T19:35:25;100018.13;;;4.12;91.98
32733;BME280;11867;51.198;11.966;2022-12-07T19:40:29;100008.81;;;4.58;89.30
32733;BME280;11867;51.198;11.966;2022-12-07T19:45:33;100018.28;;;4.78;88.01
32733;BME280;11867;51.198;11.966;2022-12-07T19:50:36;100013.91;;;4.55;88.56
32733;BME280;11867;51.198;11.966;2022-12-07T19:55:41;100020.78;;;4.84;87.98
32733;BME280;11867;51.198;11.966;2022-12-07T20:00:43;100014.34;;;4.69;87.99
32733;BME280;11867;51.198;11.966;2022-12-07T20:05:46;100010.84;;;4.12;90.91
32733;BME280;11867;51.198;11.966;2022-12-07T20:10:50;100006.44;;;3.89;91.79
32733;BME280;11867;51.198;11.966;2022-12-07T20:15:52;100001.19;;;4.16;90.31
32733;BME280;11867;51.198;11.966;2022-12-07T20:21:15;100002.94;;;4.61;88.31
32733;BME280;11867;51.198;11.966;2022-12-07T20:26:19;99988.00;;;4.76;88.25
32733;BME280;11867;51.198;11.966;2022-12-07T20:31:21;99984.97;;;4.72;86.88
32733;BME280;11867;51.198;11.966;2022-12-07T20:36:24;99984.22;;;4.38;88.11
32733;BME280;11867;51.198;11.966;2022-12-07T20:41:34;99976.13;;;4.38;88.63
32733;BME280;11867;51.198;11.966;2022-12-07T20:46:54;99976.97;;;4.38;88.16
32733;BME280;11867;51.198;11.966;2022-12-07T20:51:56;99979.47;;;4.06;88.30
32733;BME280;11867;51.198;11.966;2022-12-07T20:57:00;99975.88;;;3.83;89.65
32733;BME280;11867;51.198;11.966;2022-12-07T21:02:02;99973.50;;;3.87;90.06
32733;BME280;11867;51.198;11.966;2022-12-07T21:07:05;99965.41;;;4.04;89.88
32733;BME280;11867;51.198;11.966;2022-12-07T21:12:09;99971.72;;;4.32;88.87
32733;BME280;11867;51.198;11.966;2022-12-07T21:17:12;99968.75;;;4.50;87.48
32733;BME280;11867;51.198;11.966;2022-12-07T21:22:19;99955.97;;;4.23;88.34
32733;BME280;11867;51.198;11.966;2022-12-07T21:27:24;99956.59;;;4.70;86.76
32733;BME280;11867;51.198;11.966;2022-12-07T21:32:27;99963.84;;;3.91;88.77
32733;BME280;11867;51.198;11.966;2022-12-07T21:37:30;99950.09;;;4.27;88.97
32733;BME280;11867;51.198;11.966;2022-12-07T21:42:34;99952.25;;;4.30;88.51
32733;BME280;11867;51.198;11.966;2022-12-07T21:47:36;99947.97;;;4.51;86.86
32733;BME280;11867;51.198;11.966;2022-12-07T21:52:39;99947.09;;;4.06;89.14
32733;BME280;11867;51.198;11.966;2022-12-07T21:57:45;99939.19;;;4.21;88.55
32733;BME280;11867;51.198;11.966;2022-12-07T22:02:49;99939.53;;;4.69;86.92
32733;BME280;11867;51.198;11.966;2022-12-07T22:07:51;99937.81;;;4.80;85.72
32733;BME280;11867;51.198;11.966;2022-12-07T22:12:56;99943.41;;;4.51;86.66
32733;BME280;11867;51.198;11.966;2022-12-07T22:17:59;99940.69;;;4.73;85.85
32733;BME280;11867;51.198;11.966;2022-12-07T22:23:03;99948.84;;;4.78;85.34
32733;BME280;11867;51.198;11.966;2022-12-07T22:28:07;99937.38;;;4.66;86.12
32733;BME280;11867;51.198;11.966;2022-12-07T22:33:10;99931.97;;;4.88;85.13
32733;BME280;11867;51.198;11.966;2022-12-07T22:38:12;99935.34;;;4.78;85.94
32733;BME280;11867;51.198;11.966;2022-12-07T22:43:17;99937.13;;;4.68;86.26
32733;BME280;11867;51.198;11.966;2022-12-07T22:48:19;99926.00;;;3.86;89.58
32733;BME280;11867;51.198;11.966;2022-12-07T22:53:22;99926.22;;;4.18;89.40
32733;BME280;11867;51.198;11.966;2022-12-07T22:58:26;99906.66;;;4.72;85.91
32733;BME280;11867;51.198;11.966;2022-12-07T23:03:28;99906.16;;;4.53;86.33
32733;BME280;11867;51.198;11.966;2022-12-07T23:08:31;99911.41;;;4.65;85.80
32733;BME280;11867;51.198;11.966;2022-12-07T23:13:35;99904.81;;;4.34;87.15
32733;BME280;11867;51.198;11.966;2022-12-07T23:18:38;99910.22;;;4.12;88.82
32733;BME280;11867;51.198;11.966;2022-12-07T23:23:41;99908.09;;;3.97;88.71
32733;BME280;11867;51.198;11.966;2022-12-07T23:28:45;99901.56;;;4.32;88.29
32733;BME280;11867;51.198;11.966;2022-12-07T23:33:48;99904.75;;;3.90;88.90
32733;BME280;11867;51.198;11.966;2022-12-07T23:38:51;99899.56;;;4.05;89.40
32733;BME280;11867;51.198;11.966;2022-12-07T23:43:56;99884.56;;;4.31;88.71
32733;BME280;11867;51.198;11.966;2022-12-07T23:48:59;99870.06;;;3.76;91.59
32733;BME280;11867;51.198;11.966;2022-12-07T23:54:02;99879.25;;;3.97;90.26
32733;BME280;11867;51.198;11.966;2022-12-07T23:59:06;99865.16;;;4.12;89.03
